sensor_id;sensor_type;location;lat;lon;timestamp;temperature;humidity
24408;DHT22;12542;50.924;4.516;2023-04-25T00:01:38;9.80;99.90
24408;DHT22;12542;50.924;4.516;2023-04-25T00:04:04;9.80;99.90
24408;DHT22;12542;50.924;4.516;2023-04-25T00:06:34;9.80;99.90
24408;DHT22;12542;50.924;4.516;2023-04-25T00:09:04;9.90;99.90
24408;DHT22;12542;50.924;4.516;2023-04-25T00:11:33;9.90;99.90
24408;DHT22;12542;50.924;4.516;2023-04-25T00:13:59;9.90;99.90
24408;DHT22;12542;50.924;4.516;2023-04-25T00:16:27;9.90;99.90
24408;DHT22;12542;50.924;4.516;2023-04-25T00:18:54;9.90;99.90
24408;DHT22;12542;50.924;4.516;2023-04-25T00:21:20;9.90;99.90
24408;DHT22;12542;50.924;4.516;2023-04-25T00:23:46;9.80;99.90
24408;DHT22;12542;50.924;4.516;2023-04-25T00:26:12;9.80;99.90
24408;DHT22;12542;50.924;4.516;2023-04-25T00:28:39;9.90;99.90
24408;DHT22;12542;50.924;4.516;2023-04-25T00:31:05;9.90;99.90
24408;DHT22;12542;50.924;4.516;2023-04-25T00:33:31;9.90;99.90
24408;DHT22;12542;50.924;4.516;2023-04-25T00:35:57;9.90;99.90
24408;DHT22;12542;50.924;4.516;2023-04-25T00:38:22;9.90;99.90
24408;DHT22;12542;50.924;4.516;2023-04-25T00:40:50;9.90;99.90
24408;DHT22;12542;50.924;4.516;2023-04-25T00:43:15;9.90;99.90
24408;DHT22;12542;50.924;4.516;2023-04-25T00:45:43;9.90;99.90
24408;DHT22;12542;50.924;4.516;2023-04-25T00:48:08;9.90;99.90
24408;DHT22;12542;50.924;4.516;2023-04-25T00:50:35;9.90;99.90
24408;DHT22;12542;50.924;4.516;2023-04-25T00:53:05;9.80;99.90
24408;DHT22;12542;50.924;4.516;2023-04-25T00:55:32;9.80;99.90
24408;DHT22;12542;50.924;4.516;2023-04-25T00:58:00;9.90;99.90
24408;DHT22;12542;50.924;4.516;2023-04-25T01:00:25;9.90;99.90
24408;DHT22;12542;50.924;4.516;2023-04-25T01:02:52;9.80;99.90
24408;DHT22;12542;50.924;4.516;2023-04-25T01:05:17;9.90;99.90
24408;DHT22;12542;50.924;4.516;2023-04-25T01:07:44;9.80;99.90
24408;DHT22;12542;50.924;4.516;2023-04-25T01:10:11;9.80;99.90
24408;DHT22;12542;50.924;4.516;2023-04-25T01:12:37;9.80;99.90
24408;DHT22;12542;50.924;4.516;2023-04-25T01:15:03;9.70;99.90
24408;DHT22;12542;50.924;4.516;2023-04-25T01:17:29;9.70;99.90
24408;DHT22;12542;50.924;4.516;2023-04-25T01:19:55;9.80;99.90
24408;DHT22;12542;50.924;4.516;2023-04-25T01:22:21;9.70;99.90
24408;DHT22;12542;50.924;4.516;2023-04-25T01:24:47;9.70;99.90
24408;DHT22;12542;50.924;4.516;2023-04-25T01:27:14;9.80;99.90
24408;DHT22;12542;50.924;4.516;2023-04-25T01:29:40;9.80;99.90
24408;DHT22;12542;50.924;4.516;2023-04-25T01:32:07;9.70;99.90
24408;DHT22;12542;50.924;4.516;2023-04-25T01:34:33;9.60;99.90
24408;DHT22;12542;50.924;4.516;2023-04-25T01:37:00;9.70;99.90
24408;DHT22;12542;50.924;4.516;2023-04-25T01:39:27;9.60;99.90
24408;DHT22;12542;50.924;4.516;2023-04-25T01:41:53;9.60;99.90
24408;DHT22;12542;50.924;4.516;2023-04-25T01:44:18;9.70;99.90
24408;DHT22;12542;50.924;4.516;2023-04-25T01:46:44;9.70;99.90
24408;DHT22;12542;50.924;4.516;2023-04-25T01:49:10;9.70;99.90
24408;DHT22;12542;50.924;4.516;2023-04-25T01:51:36;9.70;99.90
24408;DHT22;12542;50.924;4.516;2023-04-25T01:54:03;9.60;99.90
24408;DHT22;12542;50.924;4.516;2023-04-25T01:56:33;9.60;99.90
24408;DHT22;12542;50.924;4.516;2023-04-25T01:59:02;9.60;99.90
24408;DHT22;12542;50.924;4.516;2023-04-25T02:01:29;9.70;99.90
24408;DHT22;12542;50.924;4.516;2023-04-25T02:03:55;9.60;99.90
24408;DHT22;12542;50.924;4.516;2023-04-25T02:06:21;9.60;99.90
24408;DHT22;12542;50.924;4.516;2023-04-25T02:08:46;9.50;99.90
24408;DHT22;12542;50.924;4.516;2023-04-25T02:11:12;9.60;99.90
24408;DHT22;12542;50.924;4.516;2023-04-25T02:13:38;9.70;99.90
24408;DHT22;12542;50.924;4.516;2023-04-25T02:16:04;9.60;99.90
24408;DHT22;12542;50.924;4.516;2023-04-25T02:18:31;9.50;99.90
24408;DHT22;12542;50.924;4.516;2023-04-25T02:20:59;9.50;99.90
24408;DHT22;12542;50.924;4.516;2023-04-25T02:23:25;9.40;99.90
24408;DHT22;12542;50.924;4.516;2023-04-25T02:25:52;9.30;99.90
24408;DHT22;12542;50.924;4.516;2023-04-25T02:28:18;9.40;99.90
24408;DHT22;12542;50.924;4.516;2023-04-25T02:30:43;9.40;99.90
24408;DHT22;12542;50.924;4.516;2023-04-25T02:33:09;9.40;99.90
24408;DHT22;12542;50.924;4.516;2023-04-25T02:35:35;9.40;99.90
24408;DHT22;12542;50.924;4.516;2023-04-25T02:38:01;9.40;99.90
24408;DHT22;12542;50.924;4.516;2023-04-25T02:40:27;9.40;99.90
24408;DHT22;12542;50.924;4.516;2023-04-25T02:42:54;9.40;99.90
24408;DHT22;12542;50.924;4.516;2023-04-25T02:45:20;9.30;99.90
24408;DHT22;12542;50.924;4.516;2023-04-25T02:47:46;9.40;99.90
24408;DHT22;12542;50.924;4.516;2023-04-25T02:50:12;9.40;99.90
24408;DHT22;12542;50.924;4.516;2023-04-25T02:52:37;9.40;99.90
24408;DHT22;12542;50.924;4.516;2023-04-25T02:55:03;9.40;99.90
24408;DHT22;12542;50.924;4.516;2023-04-25T02:57:29;9.40;99.90
24408;DHT22;12542;50.924;4.516;2023-04-25T02:59:55;9.40;99.90
24408;DHT22;12542;50.924;4.516;2023-04-25T03:02:21;9.30;99.90
24408;DHT22;12542;50.924;4.516;2023-04-25T03:04:46;9.40;99.90
24408;DHT22;12542;50.924;4.516;2023-04-25T03:07:12;9.50;99.90
24408;DHT22;12542;50.924;4.516;2023-04-25T03:09:38;9.30;99.90
24408;DHT22;12542;50.924;4.516;2023-04-25T03:12:03;9.30;99.90
24408;DHT22;12542;50.924;4.516;2023-04-25T03:14:29;9.30;99.90
24408;DHT22;12542;50.924;4.516;2023-04-25T03:16:55;9.30;99.90
24408;DHT22;12542;50.924;4.516;2023-04-25T03:19:21;9.30;99.90
24408;DHT22;12542;50.924;4.516;2023-04-25T03:21:47;9.30;99.90
24408;DHT22;12542;50.924;4.516;2023-04-25T03:24:14;9.30;99.90
24408;DHT22;12542;50.924;4.516;2023-04-25T03:26:39;9.40;99.90
24408;DHT22;12542;50.924;4.516;2023-04-25T03:29:05;9.60;99.90
24408;DHT22;12542;50.924;4.516;2023-04-25T03:31:31;9.60;99.90
24408;DHT22;12542;50.924;4.516;2023-04-25T03:33:57;9.40;99.90
24408;DHT22;12542;50.924;4.516;2023-04-25T03:36:22;9.10;99.90
24408;DHT22;12542;50.924;4.516;2023-04-25T03:38:48;9.00;99.90
24408;DHT22;12542;50.924;4.516;2023-04-25T03:41:14;9.00;99.90
24408;DHT22;12542;50.924;4.516;2023-04-25T03:43:40;8.90;99.90
24408;DHT22;12542;50.924;4.516;2023-04-25T03:46:05;8.90;99.90
24408;DHT22;12542;50.924;4.516;2023-04-25T03:48:31;8.70;99.90
24408;DHT22;12542;50.924;4.516;2023-04-25T03:50:57;8.70;99.90
24408;DHT22;12542;50.924;4.516;2023-04-25T03:53:23;8.80;99.90
24408;DHT22;12542;50.924;4.516;2023-04-25T03:55:48;8.70;99.90
24408;DHT22;12542;50.924;4.516;2023-04-25T03:58:15;8.60;99.90
24408;DHT22;12542;50.924;4.516;2023-04-25T04:00:40;8.60;99.90
24408;DHT22;12542;50.924;4.516;2023-04-25T04:03:07;8.50;99.90
24408;DHT22;12542;50.924;4.516;2023-04-25T04:05:33;8.50;99.90
24408;DHT22;12542;50.924;4.516;2023-04-25T04:07:58;8.30;99.90
24408;DHT22;12542;50.924;4.516;2023-04-25T04:10:24;8.30;99.90
24408;DHT22;12542;50.924;4.516;2023-04-25T04:12:51;8.30;99.90
24408;DHT22;12542;50.924;4.516;2023-04-25T04:15:17;8.40;99.90
24408;DHT22;12542;50.924;4.516;2023-04-25T04:17:42;8.30;99.90
24408;DHT22;12542;50.924;4.516;2023-04-25T04:20:08;8.20;99.90
24408;DHT22;12542;50.924;4.516;2023-04-25T04:22:36;8.20;99.90
24408;DHT22;12542;50.924;4.516;2023-04-25T04:25:02;8.30;99.90
24408;DHT22;12542;50.924;4.516;2023-04-25T04:27:28;8.30;99.90
24408;DHT22;12542;50.924;4.516;2023-04-25T04:29:54;8.30;99.90
24408;DHT22;12542;50.924;4.516;2023-04-25T04:32:20;8.30;99.90
24408;DHT22;12542;50.924;4.516;2023-04-25T04:34:46;8.30;99.90
24408;DHT22;12542;50.924;4.516;2023-04-25T04:37:12;8.30;99.90
24408;DHT22;12542;50.924;4.516;2023-04-25T04:39:38;8.30;99.90
24408;DHT22;12542;50.924;4.516;2023-04-25T04:42:04;8.40;99.90
24408;DHT22;12542;50.924;4.516;2023-04-25T04:44:31;8.50;99.90
24408;DHT22;12542;50.924;4.516;2023-04-25T04:47:01;8.60;99.90
24408;DHT22;12542;50.924;4.516;2023-04-25T04:49:27;8.60;99.90
24408;DHT22;12542;50.924;4.516;2023-04-25T04:51:53;8.50;99.90
24408;DHT22;12542;50.924;4.516;2023-04-25T04:54:20;8.60;99.90
24408;DHT22;12542;50.924;4.516;2023-04-25T04:56:47;8.60;99.90
24408;DHT22;12542;50.924;4.516;2023-04-25T04:59:12;8.60;99.90
24408;DHT22;12542;50.924;4.516;2023-04-25T05:01:38;8.60;99.90
24408;DHT22;12542;50.924;4.516;2023-04-25T05:04:04;8.60;99.90
24408;DHT22;12542;50.924;4.516;2023-04-25T05:06:30;8.50;99.90
24408;DHT22;12542;50.924;4.516;2023-04-25T05:08:57;8.50;99.90
24408;DHT22;12542;50.924;4.516;2023-04-25T05:11:24;8.50;99.90
24408;DHT22;12542;50.924;4.516;2023-04-25T05:13:52;8.50;99.90
24408;DHT22;12542;50.924;4.516;2023-04-25T05:16:18;8.50;99.90
24408;DHT22;12542;50.924;4.516;2023-04-25T05:18:44;8.50;99.90
24408;DHT22;12542;50.924;4.516;2023-04-25T05:21:10;8.50;99.90
24408;DHT22;12542;50.924;4.516;2023-04-25T05:23:36;8.50;99.90
24408;DHT22;12542;50.924;4.516;2023-04-25T05:26:02;8.40;99.90
24408;DHT22;12542;50.924;4.516;2023-04-25T05:28:28;8.40;99.90
24408;DHT22;12542;50.924;4.516;2023-04-25T05:30:54;8.50;99.90
24408;DHT22;12542;50.924;4.516;2023-04-25T05:33:19;8.40;99.90
24408;DHT22;12542;50.924;4.516;2023-04-25T05:35:45;8.50;99.90
24408;DHT22;12542;50.924;4.516;2023-04-25T05:38:11;8.50;99.90
24408;DHT22;12542;50.924;4.516;2023-04-25T05:40:37;8.50;99.90
24408;DHT22;12542;50.924;4.516;2023-04-25T05:43:03;8.50;99.90
24408;DHT22;12542;50.924;4.516;2023-04-25T05:45:29;8.50;99.90
24408;DHT22;12542;50.924;4.516;2023-04-25T05:47:55;8.60;99.90
24408;DHT22;12542;50.924;4.516;2023-04-25T05:50:20;8.70;99.90
24408;DHT22;12542;50.924;4.516;2023-04-25T05:52:47;8.80;99.90
24408;DHT22;12542;50.924;4.516;2023-04-25T05:55:12;8.80;99.90
24408;DHT22;12542;50.924;4.516;2023-04-25T05:57:39;8.70;99.90
24408;DHT22;12542;50.924;4.516;2023-04-25T06:00:11;8.80;99.90
24408;DHT22;12542;50.924;4.516;2023-04-25T06:02:37;8.90;99.90
24408;DHT22;12542;50.924;4.516;2023-04-25T06:05:03;9.00;99.90
24408;DHT22;12542;50.924;4.516;2023-04-25T06:07:29;9.10;99.90
24408;DHT22;12542;50.924;4.516;2023-04-25T06:09:56;9.00;99.90
24408;DHT22;12542;50.924;4.516;2023-04-25T06:12:22;9.10;99.90
24408;DHT22;12542;50.924;4.516;2023-04-25T06:14:47;9.10;99.90
24408;DHT22;12542;50.924;4.516;2023-04-25T06:17:13;9.20;99.90
24408;DHT22;12542;50.924;4.516;2023-04-25T06:19:39;9.20;99.90
24408;DHT22;12542;50.924;4.516;2023-04-25T06:22:08;9.40;99.90
24408;DHT22;12542;50.924;4.516;2023-04-25T06:24:34;9.50;99.90
24408;DHT22;12542;50.924;4.516;2023-04-25T06:27:00;9.50;99.90
24408;DHT22;12542;50.924;4.516;2023-04-25T06:29:26;9.40;99.90
24408;DHT22;12542;50.924;4.516;2023-04-25T06:31:52;9.40;99.90
24408;DHT22;12542;50.924;4.516;2023-04-25T06:34:18;9.50;99.90
24408;DHT22;12542;50.924;4.516;2023-04-25T06:36:44;9.50;99.90
24408;DHT22;12542;50.924;4.516;2023-04-25T06:39:10;9.60;99.90
24408;DHT22;12542;50.924;4.516;2023-04-25T06:41:36;9.80;99.90
24408;DHT22;12542;50.924;4.516;2023-04-25T06:44:02;9.80;99.90
24408;DHT22;12542;50.924;4.516;2023-04-25T06:46:28;9.90;99.90
24408;DHT22;12542;50.924;4.516;2023-04-25T06:48:53;9.90;99.90
24408;DHT22;12542;50.924;4.516;2023-04-25T06:51:19;9.90;99.90
24408;DHT22;12542;50.924;4.516;2023-04-25T06:53:45;9.90;99.90
24408;DHT22;12542;50.924;4.516;2023-04-25T06:56:11;10.00;99.90
24408;DHT22;12542;50.924;4.516;2023-04-25T06:58:36;10.10;99.90
24408;DHT22;12542;50.924;4.516;2023-04-25T07:01:02;9.90;99.90
24408;DHT22;12542;50.924;4.516;2023-04-25T07:03:28;9.80;99.90
24408;DHT22;12542;50.924;4.516;2023-04-25T07:05:53;9.80;99.90
24408;DHT22;12542;50.924;4.516;2023-04-25T07:08:20;9.70;99.90
24408;DHT22;12542;50.924;4.516;2023-04-25T07:10:46;9.50;99.90
24408;DHT22;12542;50.924;4.516;2023-04-25T07:13:12;9.60;99.90
24408;DHT22;12542;50.924;4.516;2023-04-25T07:15:38;9.80;99.90
24408;DHT22;12542;50.924;4.516;2023-04-25T07:18:03;10.00;99.90
24408;DHT22;12542;50.924;4.516;2023-04-25T07:20:32;10.10;99.90
24408;DHT22;12542;50.924;4.516;2023-04-25T07:23:00;10.20;99.90
24408;DHT22;12542;50.924;4.516;2023-04-25T07:25:26;10.40;99.90
24408;DHT22;12542;50.924;4.516;2023-04-25T07:27:52;10.60;99.90
24408;DHT22;12542;50.924;4.516;2023-04-25T07:30:17;10.70;99.90
24408;DHT22;12542;50.924;4.516;2023-04-25T07:32:43;10.80;99.90
24408;DHT22;12542;50.924;4.516;2023-04-25T07:35:09;11.00;99.90
24408;DHT22;12542;50.924;4.516;2023-04-25T07:37:35;11.20;99.90
24408;DHT22;12542;50.924;4.516;2023-04-25T07:40:02;11.20;99.90
24408;DHT22;12542;50.924;4.516;2023-04-25T07:42:29;11.20;99.90
24408;DHT22;12542;50.924;4.516;2023-04-25T07:44:57;11.10;99.90
24408;DHT22;12542;50.924;4.516;2023-04-25T07:47:23;11.10;99.90
24408;DHT22;12542;50.924;4.516;2023-04-25T07:49:49;11.20;99.90
24408;DHT22;12542;50.924;4.516;2023-04-25T07:52:17;11.20;99.90
24408;DHT22;12542;50.924;4.516;2023-04-25T07:54:43;11.30;99.90
24408;DHT22;12542;50.924;4.516;2023-04-25T07:57:09;11.10;99.90
24408;DHT22;12542;50.924;4.516;2023-04-25T07:59:35;11.10;99.90
24408;DHT22;12542;50.924;4.516;2023-04-25T08:02:01;10.90;99.90
24408;DHT22;12542;50.924;4.516;2023-04-25T08:04:27;10.70;99.90
24408;DHT22;12542;50.924;4.516;2023-04-25T08:06:53;10.70;99.90
24408;DHT22;12542;50.924;4.516;2023-04-25T08:09:20;10.80;99.90
24408;DHT22;12542;50.924;4.516;2023-04-25T08:11:46;10.80;99.90
24408;DHT22;12542;50.924;4.516;2023-04-25T08:14:12;10.80;99.90
24408;DHT22;12542;50.924;4.516;2023-04-25T08:16:39;10.90;99.90
24408;DHT22;12542;50.924;4.516;2023-04-25T08:19:05;11.10;99.90
24408;DHT22;12542;50.924;4.516;2023-04-25T08:21:31;11.10;99.90
24408;DHT22;12542;50.924;4.516;2023-04-25T08:23:58;11.30;99.90
24408;DHT22;12542;50.924;4.516;2023-04-25T08:26:24;11.60;99.90
24408;DHT22;12542;50.924;4.516;2023-04-25T08:28:50;11.50;99.90
24408;DHT22;12542;50.924;4.516;2023-04-25T08:31:16;11.20;99.90
24408;DHT22;12542;50.924;4.516;2023-04-25T08:33:42;10.90;99.90
24408;DHT22;12542;50.924;4.516;2023-04-25T08:36:08;10.90;99.90
24408;DHT22;12542;50.924;4.516;2023-04-25T08:38:34;10.80;99.90
24408;DHT22;12542;50.924;4.516;2023-04-25T08:41:00;10.80;99.90
24408;DHT22;12542;50.924;4.516;2023-04-25T08:43:29;11.00;99.90
24408;DHT22;12542;50.924;4.516;2023-04-25T08:45:59;11.30;99.90
24408;DHT22;12542;50.924;4.516;2023-04-25T08:48:27;12.00;99.90
24408;DHT22;12542;50.924;4.516;2023-04-25T08:50:55;12.70;99.90
24408;DHT22;12542;50.924;4.516;2023-04-25T08:53:28;13.20;99.90
24408;DHT22;12542;50.924;4.516;2023-04-25T08:55:55;13.70;99.90
24408;DHT22;12542;50.924;4.516;2023-04-25T08:58:22;14.50;99.90
24408;DHT22;12542;50.924;4.516;2023-04-25T09:00:49;14.90;99.90
24408;DHT22;12542;50.924;4.516;2023-04-25T09:03:15;15.60;99.90
24408;DHT22;12542;50.924;4.516;2023-04-25T09:05:42;16.30;99.90
24408;DHT22;12542;50.924;4.516;2023-04-25T09:08:07;16.30;99.90
24408;DHT22;12542;50.924;4.516;2023-04-25T09:10:34;16.10;99.50
24408;DHT22;12542;50.924;4.516;2023-04-25T09:13:14;15.60;99.30
24408;DHT22;12542;50.924;4.516;2023-04-25T09:15:57;14.90;99.80
24408;DHT22;12542;50.924;4.516;2023-04-25T09:18:27;13.90;99.90
24408;DHT22;12542;50.924;4.516;2023-04-25T09:20:54;13.20;99.90
24408;DHT22;12542;50.924;4.516;2023-04-25T09:23:21;12.60;99.90
24408;DHT22;12542;50.924;4.516;2023-04-25T09:25:52;12.20;99.90
24408;DHT22;12542;50.924;4.516;2023-04-25T09:28:25;11.80;99.90
24408;DHT22;12542;50.924;4.516;2023-04-25T09:30:56;11.80;99.90
24408;DHT22;12542;50.924;4.516;2023-04-25T09:33:32;11.70;99.90
24408;DHT22;12542;50.924;4.516;2023-04-25T09:36:08;11.60;99.90
24408;DHT22;12542;50.924;4.516;2023-04-25T09:38:42;11.40;99.90
24408;DHT22;12542;50.924;4.516;2023-04-25T09:41:08;11.50;99.90
24408;DHT22;12542;50.924;4.516;2023-04-25T09:43:37;11.60;99.90
24408;DHT22;12542;50.924;4.516;2023-04-25T09:46:10;11.90;99.90
24408;DHT22;12542;50.924;4.516;2023-04-25T09:48:37;12.30;99.90
24408;DHT22;12542;50.924;4.516;2023-04-25T09:53:29;12.40;99.90
24408;DHT22;12542;50.924;4.516;2023-04-25T09:55:56;12.70;99.90
24408;DHT22;12542;50.924;4.516;2023-04-25T09:58:24;13.20;99.90
24408;DHT22;12542;50.924;4.516;2023-04-25T10:00:51;14.10;99.90
24408;DHT22;12542;50.924;4.516;2023-04-25T10:03:17;14.30;99.80
24408;DHT22;12542;50.924;4.516;2023-04-25T10:05:47;13.90;99.30
24408;DHT22;12542;50.924;4.516;2023-04-25T10:08:15;13.70;99.90
24408;DHT22;12542;50.924;4.516;2023-04-25T10:10:42;13.30;99.90
24408;DHT22;12542;50.924;4.516;2023-04-25T10:13:11;13.30;99.50
24408;DHT22;12542;50.924;4.516;2023-04-25T10:15:40;12.90;99.90
24408;DHT22;12542;50.924;4.516;2023-04-25T10:18:07;12.70;99.90
24408;DHT22;12542;50.924;4.516;2023-04-25T10:20:33;13.00;99.90
24408;DHT22;12542;50.924;4.516;2023-04-25T10:23:13;13.10;99.90
24408;DHT22;12542;50.924;4.516;2023-04-25T10:25:41;13.60;99.90
24408;DHT22;12542;50.924;4.516;2023-04-25T10:28:07;14.30;99.90
24408;DHT22;12542;50.924;4.516;2023-04-25T10:30:36;14.90;99.90
24408;DHT22;12542;50.924;4.516;2023-04-25T10:33:18;15.30;97.30
24408;DHT22;12542;50.924;4.516;2023-04-25T10:35:46;15.50;95.90
24408;DHT22;12542;50.924;4.516;2023-04-25T10:38:14;15.50;96.60
24408;DHT22;12542;50.924;4.516;2023-04-25T10:40:40;15.40;94.50
24408;DHT22;12542;50.924;4.516;2023-04-25T10:45:53;15.10;95.00
24408;DHT22;12542;50.924;4.516;2023-04-25T10:48:46;15.20;93.30
24408;DHT22;12542;50.924;4.516;2023-04-25T10:51:23;15.30;91.90
24408;DHT22;12542;50.924;4.516;2023-04-25T10:54:08;14.70;94.40
24408;DHT22;12542;50.924;4.516;2023-04-25T10:56:39;14.20;94.10
24408;DHT22;12542;50.924;4.516;2023-04-25T10:59:10;13.80;96.80
24408;DHT22;12542;50.924;4.516;2023-04-25T11:01:47;13.30;99.00
24408;DHT22;12542;50.924;4.516;2023-04-25T11:04:31;12.70;99.90
24408;DHT22;12542;50.924;4.516;2023-04-25T11:09:39;12.10;99.90
24408;DHT22;12542;50.924;4.516;2023-04-25T11:12:08;11.50;99.90
24408;DHT22;12542;50.924;4.516;2023-04-25T11:14:34;11.20;99.90
24408;DHT22;12542;50.924;4.516;2023-04-25T11:17:00;11.30;99.90
24408;DHT22;12542;50.924;4.516;2023-04-25T11:19:28;11.40;99.90
24408;DHT22;12542;50.924;4.516;2023-04-25T11:21:58;11.40;99.90
24408;DHT22;12542;50.924;4.516;2023-04-25T11:24:32;11.70;99.90
24408;DHT22;12542;50.924;4.516;2023-04-25T11:26:59;11.80;99.90
24408;DHT22;12542;50.924;4.516;2023-04-25T11:29:28;12.10;99.90
24408;DHT22;12542;50.924;4.516;2023-04-25T11:31:55;12.50;99.90
24408;DHT22;12542;50.924;4.516;2023-04-25T11:34:27;12.80;99.90
24408;DHT22;12542;50.924;4.516;2023-04-25T11:36:58;13.50;99.90
24408;DHT22;12542;50.924;4.516;2023-04-25T11:39:26;13.90;99.90
24408;DHT22;12542;50.924;4.516;2023-04-25T11:41:52;13.90;99.90
24408;DHT22;12542;50.924;4.516;2023-04-25T11:44:19;13.50;99.90
24408;DHT22;12542;50.924;4.516;2023-04-25T11:46:45;13.60;99.90
24408;DHT22;12542;50.924;4.516;2023-04-25T11:49:12;13.50;99.90
24408;DHT22;12542;50.924;4.516;2023-04-25T11:51:43;13.50;99.90
24408;DHT22;12542;50.924;4.516;2023-04-25T11:54:09;13.60;99.90
24408;DHT22;12542;50.924;4.516;2023-04-25T11:56:35;13.60;99.90
24408;DHT22;12542;50.924;4.516;2023-04-25T11:59:03;14.00;99.90
24408;DHT22;12542;50.924;4.516;2023-04-25T12:01:37;14.60;99.70
24408;DHT22;12542;50.924;4.516;2023-04-25T12:04:19;14.90;97.20
24408;DHT22;12542;50.924;4.516;2023-04-25T12:06:47;15.10;97.30
24408;DHT22;12542;50.924;4.516;2023-04-25T12:09:15;15.30;95.90
24408;DHT22;12542;50.924;4.516;2023-04-25T12:11:44;15.40;95.50
24408;DHT22;12542;50.924;4.516;2023-04-25T12:14:10;15.10;93.20
24408;DHT22;12542;50.924;4.516;2023-04-25T12:16:43;14.60;93.70
24408;DHT22;12542;50.924;4.516;2023-04-25T12:19:09;14.20;95.20
24408;DHT22;12542;50.924;4.516;2023-04-25T12:21:35;13.80;95.40
24408;DHT22;12542;50.924;4.516;2023-04-25T12:24:23;13.70;95.60
24408;DHT22;12542;50.924;4.516;2023-04-25T12:29:28;13.60;95.00
24408;DHT22;12542;50.924;4.516;2023-04-25T12:31:54;13.50;96.90
24408;DHT22;12542;50.924;4.516;2023-04-25T12:34:21;13.60;97.30
24408;DHT22;12542;50.924;4.516;2023-04-25T12:36:48;14.10;95.80
24408;DHT22;12542;50.924;4.516;2023-04-25T12:39:15;13.80;94.50
24408;DHT22;12542;50.924;4.516;2023-04-25T12:41:41;13.60;94.40
24408;DHT22;12542;50.924;4.516;2023-04-25T12:44:07;13.30;94.10
24408;DHT22;12542;50.924;4.516;2023-04-25T12:46:32;13.50;94.40
24408;DHT22;12542;50.924;4.516;2023-04-25T12:48:58;13.70;93.50
24408;DHT22;12542;50.924;4.516;2023-04-25T12:51:24;13.50;95.20
24408;DHT22;12542;50.924;4.516;2023-04-25T12:53:51;13.70;95.50
24408;DHT22;12542;50.924;4.516;2023-04-25T12:56:17;14.00;95.30
24408;DHT22;12542;50.924;4.516;2023-04-25T12:58:43;14.20;96.20
24408;DHT22;12542;50.924;4.516;2023-04-25T13:01:09;13.90;96.00
24408;DHT22;12542;50.924;4.516;2023-04-25T13:03:35;13.90;96.80
24408;DHT22;12542;50.924;4.516;2023-04-25T13:06:01;14.20;96.10
24408;DHT22;12542;50.924;4.516;2023-04-25T13:08:26;14.20;96.80
24408;DHT22;12542;50.924;4.516;2023-04-25T13:10:52;14.10;95.20
24408;DHT22;12542;50.924;4.516;2023-04-25T13:13:18;14.00;96.50
24408;DHT22;12542;50.924;4.516;2023-04-25T13:15:44;14.00;95.50
24408;DHT22;12542;50.924;4.516;2023-04-25T13:18:10;14.20;93.30
24408;DHT22;12542;50.924;4.516;2023-04-25T13:20:35;14.10;95.50
24408;DHT22;12542;50.924;4.516;2023-04-25T13:23:01;14.10;96.40
24408;DHT22;12542;50.924;4.516;2023-04-25T13:25:27;14.30;95.50
24408;DHT22;12542;50.924;4.516;2023-04-25T13:27:53;14.60;93.20
24408;DHT22;12542;50.924;4.516;2023-04-25T13:30:20;14.70;92.20
24408;DHT22;12542;50.924;4.516;2023-04-25T13:32:46;14.50;92.60
24408;DHT22;12542;50.924;4.516;2023-04-25T13:35:13;14.40;92.20
24408;DHT22;12542;50.924;4.516;2023-04-25T13:37:39;14.20;95.00
24408;DHT22;12542;50.924;4.516;2023-04-25T13:40:07;14.10;94.60
24408;DHT22;12542;50.924;4.516;2023-04-25T13:42:36;14.40;96.30
24408;DHT22;12542;50.924;4.516;2023-04-25T13:45:02;14.80;95.70
24408;DHT22;12542;50.924;4.516;2023-04-25T13:47:28;14.90;94.20
24408;DHT22;12542;50.924;4.516;2023-04-25T13:49:54;15.20;95.50
24408;DHT22;12542;50.924;4.516;2023-04-25T13:52:20;15.50;94.30
24408;DHT22;12542;50.924;4.516;2023-04-25T13:54:46;15.10;94.00
24408;DHT22;12542;50.924;4.516;2023-04-25T13:57:13;15.20;93.80
24408;DHT22;12542;50.924;4.516;2023-04-25T13:59:41;14.90;92.80
24408;DHT22;12542;50.924;4.516;2023-04-25T14:02:07;14.30;93.80
24408;DHT22;12542;50.924;4.516;2023-04-25T14:04:33;13.90;92.30
24408;DHT22;12542;50.924;4.516;2023-04-25T14:06:59;14.10;93.60
24408;DHT22;12542;50.924;4.516;2023-04-25T14:09:25;14.10;94.40
24408;DHT22;12542;50.924;4.516;2023-04-25T14:11:53;14.40;96.50
24408;DHT22;12542;50.924;4.516;2023-04-25T14:14:20;14.70;94.80
24408;DHT22;12542;50.924;4.516;2023-04-25T14:16:46;14.80;94.40
24408;DHT22;12542;50.924;4.516;2023-04-25T14:19:17;15.00;92.00
24408;DHT22;12542;50.924;4.516;2023-04-25T14:21:43;15.00;94.00
24408;DHT22;12542;50.924;4.516;2023-04-25T14:24:12;15.00;94.40
24408;DHT22;12542;50.924;4.516;2023-04-25T14:26:38;15.10;92.10
24408;DHT22;12542;50.924;4.516;2023-04-25T14:29:05;15.10;91.80
24408;DHT22;12542;50.924;4.516;2023-04-25T14:31:32;15.40;91.30
24408;DHT22;12542;50.924;4.516;2023-04-25T14:33:58;15.40;90.30
24408;DHT22;12542;50.924;4.516;2023-04-25T14:36:24;15.40;90.90
24408;DHT22;12542;50.924;4.516;2023-04-25T14:38:50;15.00;92.40
24408;DHT22;12542;50.924;4.516;2023-04-25T14:41:16;14.60;92.30
24408;DHT22;12542;50.924;4.516;2023-04-25T14:43:41;14.50;92.80
24408;DHT22;12542;50.924;4.516;2023-04-25T14:46:07;14.60;92.70
24408;DHT22;12542;50.924;4.516;2023-04-25T14:48:33;15.00;91.00
24408;DHT22;12542;50.924;4.516;2023-04-25T14:51:00;15.10;91.30
24408;DHT22;12542;50.924;4.516;2023-04-25T14:53:27;14.70;91.70
24408;DHT22;12542;50.924;4.516;2023-04-25T14:55:53;14.70;91.90
24408;DHT22;12542;50.924;4.516;2023-04-25T14:58:19;14.70;92.40
24408;DHT22;12542;50.924;4.516;2023-04-25T15:00:46;14.80;92.30
24408;DHT22;12542;50.924;4.516;2023-04-25T15:03:12;14.90;92.70
24408;DHT22;12542;50.924;4.516;2023-04-25T15:05:39;14.70;93.30
24408;DHT22;12542;50.924;4.516;2023-04-25T15:08:06;14.70;91.00
24408;DHT22;12542;50.924;4.516;2023-04-25T15:10:31;14.50;91.50
24408;DHT22;12542;50.924;4.516;2023-04-25T15:12:57;14.50;92.00
24408;DHT22;12542;50.924;4.516;2023-04-25T15:15:23;14.60;90.00
24408;DHT22;12542;50.924;4.516;2023-04-25T15:17:50;14.60;90.60
24408;DHT22;12542;50.924;4.516;2023-04-25T15:20:16;14.50;88.90
24408;DHT22;12542;50.924;4.516;2023-04-25T15:22:43;14.10;92.00
24408;DHT22;12542;50.924;4.516;2023-04-25T15:25:11;14.10;92.90
24408;DHT22;12542;50.924;4.516;2023-04-25T15:27:38;14.10;92.10
24408;DHT22;12542;50.924;4.516;2023-04-25T15:30:07;14.10;91.20
24408;DHT22;12542;50.924;4.516;2023-04-25T15:32:34;13.90;92.90
24408;DHT22;12542;50.924;4.516;2023-04-25T15:35:06;13.70;93.20
24408;DHT22;12542;50.924;4.516;2023-04-25T15:37:33;13.70;91.60
24408;DHT22;12542;50.924;4.516;2023-04-25T15:40:05;13.60;91.30
24408;DHT22;12542;50.924;4.516;2023-04-25T15:42:38;13.60;92.20
24408;DHT22;12542;50.924;4.516;2023-04-25T15:45:06;13.60;92.90
24408;DHT22;12542;50.924;4.516;2023-04-25T15:47:34;13.40;91.40